Time;durP1;ratioP1;P1;durP2;ratioP2;P2;SDS_P1;SDS_P2;PMS_P1;PMS_P2;Temp;Humidity;BMP_temperature;BMP_pressure;BME280_temperature;BME280_humidity;BME280_pressure;Samples;Min_cycle;Max_cycle;Signal;HPM_P1;HPM_P2
2022/11/21 00:01:12;;;;;;;7.23;6.00;;;;;;;;;;5121391;28;20211;-62
2022/11/21 00:03:40;;;;;;;11.13;6.50;;;;;;;;;;5121364;28;20224;-62
2022/11/21 00:06:08;;;;;;;11.13;6.30;;;;;;;;;;5121219;28;20700;-62
2022/11/21 00:08:36;;;;;;;7.37;5.60;;;;;;;;;;5121514;28;20215;-62
2022/11/21 00:11:04;;;;;;;9.03;6.73;;;;;;;;;;5121571;28;20209;-62
2022/11/21 00:13:32;;;;;;;12.43;6.50;;;;;;;;;;5121055;28;20221;-62
2022/11/21 00:16:04;;;;;;;10.23;6.73;;;;;;;;;;5117740;27;20286;-62
2022/11/21 00:18:33;;;;;;;7.60;5.83;;;;;;;;;;5100872;28;20202;-62
2022/11/21 00:21:04;;;;;;;9.17;6.03;;;;;;;;;;5100848;28;20653;-62
2022/11/21 00:23:31;;;;;;;11.23;6.83;;;;;;;;;;5100589;28;20228;-62
2022/11/21 00:26:03;;;;;;;6.73;5.67;;;;;;;;;;5100645;28;20598;-62
2022/11/21 00:28:31;;;;;;;10.07;6.17;;;;;;;;;;5100398;28;20766;-62
2022/11/21 00:30:59;;;;;;;9.83;6.73;;;;;;;;;;5100493;28;20209;-62
2022/11/21 00:33:28;;;;;;;8.43;6.07;;;;;;;;;;5099809;28;20229;-62
2022/11/21 00:35:56;;;;;;;7.90;5.97;;;;;;;;;;5100300;28;20719;-62
2022/11/21 00:38:24;;;;;;;11.90;6.67;;;;;;;;;;5100636;28;20206;-62
2022/11/21 00:40:52;;;;;;;8.87;5.83;;;;;;;;;;5100350;28;20206;-62
2022/11/21 00:43:20;;;;;;;9.30;6.17;;;;;;;;;;5100422;28;20206;-62
2022/11/21 00:45:48;;;;;;;8.63;6.53;;;;;;;;;;5084327;28;20311;-62
2022/11/21 00:48:16;;;;;;;7.93;5.70;;;;;;;;;;5091991;28;20202;-62
2022/11/21 00:50:47;;;;;;;9.27;6.23;;;;;;;;;;5100169;28;20665;-62
2022/11/21 00:53:15;;;;;;;8.87;6.03;;;;;;;;;;5095721;28;20202;-62
2022/11/21 00:55:43;;;;;;;7.83;5.63;;;;;;;;;;5098765;28;20221;-62
2022/11/21 00:58:11;;;;;;;6.47;5.70;;;;;;;;;;5099877;28;20209;-62
2022/11/21 01:00:39;;;;;;;7.50;5.77;;;;;;;;;;5099673;28;20213;-62
2022/11/21 01:03:07;;;;;;;9.47;6.20;;;;;;;;;;5090822;28;20203;-62
2022/11/21 01:05:35;;;;;;;7.43;5.93;;;;;;;;;;5100305;28;20233;-62
2022/11/21 01:08:05;;;;;;;7.87;5.73;;;;;;;;;;5100982;28;20210;-62
2022/11/21 01:10:34;;;;;;;6.00;5.40;;;;;;;;;;5099862;28;20684;-62
2022/11/21 01:13:02;;;;;;;9.03;6.10;;;;;;;;;;5099730;28;20205;-62
2022/11/21 01:15:30;;;;;;;7.97;5.47;;;;;;;;;;5099211;28;20225;-62
2022/11/21 01:17:57;;;;;;;7.07;5.87;;;;;;;;;;5096653;28;20202;-62
2022/11/21 01:20:26;;;;;;;9.43;6.00;;;;;;;;;;5094854;28;20200;-62
2022/11/21 01:22:54;;;;;;;6.53;5.80;;;;;;;;;;5094066;28;20669;-62
2022/11/21 01:25:23;;;;;;;8.07;6.33;;;;;;;;;;5099444;28;20708;-62
2022/11/21 01:27:51;;;;;;;8.27;6.17;;;;;;;;;;5099464;28;20212;-62
2022/11/21 01:30:19;;;;;;;10.10;5.93;;;;;;;;;;5099348;28;20202;-62
2022/11/21 01:32:48;;;;;;;8.60;5.70;;;;;;;;;;5099509;28;20205;-62
2022/11/21 01:35:16;;;;;;;9.57;5.97;;;;;;;;;;5099185;28;20726;-62
2022/11/21 01:37:46;;;;;;;10.00;6.50;;;;;;;;;;5116832;28;20212;-62
2022/11/21 01:40:14;;;;;;;6.50;5.80;;;;;;;;;;5119714;28;20570;-62
2022/11/21 01:42:58;;;;;;;10.27;5.90;;;;;;;;;;5119362;28;20671;-62
2022/11/21 01:45:45;;;;;;;9.23;6.40;;;;;;;;;;5115281;28;20217;-62
2022/11/21 01:48:13;;;;;;;10.80;5.77;;;;;;;;;;5099278;28;20210;-62
2022/11/21 01:50:40;;;;;;;7.37;5.50;;;;;;;;;;5099343;28;20208;-63
2022/11/21 01:53:09;;;;;;;8.17;6.00;;;;;;;;;;5098924;28;20213;-62
2022/11/21 01:55:36;;;;;;;7.67;5.37;;;;;;;;;;5098758;28;20562;-62
2022/11/21 01:58:06;;;;;;;10.33;5.23;;;;;;;;;;5098800;28;20209;-62
2022/11/21 02:00:37;;;;;;;7.70;5.03;;;;;;;;;;5098685;28;20209;-62
2022/11/21 02:03:08;;;;;;;7.90;4.10;;;;;;;;;;5098760;28;20213;-62
2022/11/21 02:05:37;;;;;;;5.87;4.60;;;;;;;;;;5098575;28;20230;-62
2022/11/21 02:08:07;;;;;;;8.47;4.63;;;;;;;;;;5098913;28;20210;-62
2022/11/21 02:10:36;;;;;;;7.53;4.40;;;;;;;;;;5098677;28;20496;-62
2022/11/21 02:13:06;;;;;;;8.57;4.37;;;;;;;;;;5098544;28;20209;-62
2022/11/21 02:15:34;;;;;;;6.37;4.43;;;;;;;;;;5097316;28;20210;-63
2022/11/21 02:18:02;;;;;;;6.43;4.00;;;;;;;;;;5098667;28;20213;-63
2022/11/21 02:20:30;;;;;;;7.13;4.63;;;;;;;;;;5098420;28;20205;-62
2022/11/21 02:23:01;;;;;;;7.07;4.13;;;;;;;;;;5098533;28;20205;-62
2022/11/21 02:25:31;;;;;;;7.23;4.70;;;;;;;;;;5098365;28;20205;-62
2022/11/21 02:28:00;;;;;;;5.20;4.13;;;;;;;;;;5098196;28;20571;-62
2022/11/21 02:30:28;;;;;;;6.37;4.30;;;;;;;;;;5098177;28;20206;-62
2022/11/21 02:32:56;;;;;;;7.10;4.07;;;;;;;;;;5098338;28;20206;-62
2022/11/21 02:35:24;;;;;;;7.43;3.80;;;;;;;;;;5098316;28;20229;-62
2022/11/21 02:37:54;;;;;;;5.50;3.53;;;;;;;;;;5098412;28;20225;-63
2022/11/21 02:40:24;;;;;;;5.87;3.50;;;;;;;;;;5093853;28;20208;-62
2022/11/21 02:42:59;;;;;;;4.57;3.40;;;;;;;;;;5096964;28;20202;-62
2022/11/21 02:45:28;;;;;;;4.37;3.60;;;;;;;;;;5097902;28;20224;-62
2022/11/21 02:47:56;;;;;;;4.43;3.90;;;;;;;;;;5098314;28;20212;-62
2022/11/21 02:50:32;;;;;;;5.63;4.37;;;;;;;;;;5097879;28;20575;-62
2022/11/21 02:53:00;;;;;;;6.33;4.63;;;;;;;;;;5098325;28;20213;-62
2022/11/21 02:55:28;;;;;;;6.20;4.93;;;;;;;;;;5097728;28;20212;-62
2022/11/21 02:57:57;;;;;;;6.23;4.50;;;;;;;;;;5097743;28;20226;-62
2022/11/21 03:00:31;;;;;;;6.33;4.20;;;;;;;;;;5097656;28;20209;-62
2022/11/21 03:02:59;;;;;;;6.83;4.07;;;;;;;;;;5088382;28;20209;-62
2022/11/21 03:05:27;;;;;;;8.23;4.70;;;;;;;;;;5096812;28;20245;-62
2022/11/21 03:07:56;;;;;;;5.70;4.10;;;;;;;;;;5098006;28;20205;-62
2022/11/21 03:10:24;;;;;;;6.43;4.50;;;;;;;;;;5097193;28;20215;-62
2022/11/21 03:12:59;;;;;;;12.60;5.53;;;;;;;;;;5097485;28;20670;-62
2022/11/21 03:15:30;;;;;;;10.07;5.50;;;;;;;;;;5097403;28;20284;-62
2022/11/21 03:17:59;;;;;;;9.40;5.73;;;;;;;;;;5096002;28;20217;-63
2022/11/21 03:20:27;;;;;;;8.17;4.73;;;;;;;;;;5098133;28;20292;-62
2022/11/21 03:22:55;;;;;;;6.83;4.60;;;;;;;;;;5111761;28;20200;-62
2022/11/21 03:25:24;;;;;;;6.80;3.53;;;;;;;;;;5097620;28;20221;-64
2022/11/21 03:27:53;;;;;;;5.13;3.30;;;;;;;;;;5097646;28;20202;-63
2022/11/21 03:30:21;;;;;;;4.40;3.13;;;;;;;;;;5097571;28;20209;-62
2022/11/21 03:32:50;;;;;;;5.00;3.20;;;;;;;;;;5097565;28;20213;-62
2022/11/21 03:35:18;;;;;;;5.97;3.60;;;;;;;;;;5097449;28;20236;-63
2022/11/21 03:37:48;;;;;;;5.17;3.40;;;;;;;;;;5097346;28;20225;-62
2022/11/21 03:40:16;;;;;;;4.13;2.70;;;;;;;;;;5096584;28;20225;-62
2022/11/21 03:42:44;;;;;;;6.23;3.30;;;;;;;;;;5097477;28;20210;-63
2022/11/21 03:45:12;;;;;;;3.80;3.17;;;;;;;;;;5097365;28;20235;-62
2022/11/21 03:47:40;;;;;;;5.43;3.10;;;;;;;;;;5097573;28;20201;-62
2022/11/21 03:50:09;;;;;;;5.03;3.03;;;;;;;;;;5097400;28;20212;-62
2022/11/21 03:52:37;;;;;;;4.87;3.30;;;;;;;;;;5097789;28;20208;-62
2022/11/21 03:55:06;;;;;;;5.07;3.23;;;;;;;;;;5097447;28;20225;-62
2022/11/21 03:57:34;;;;;;;6.77;3.07;;;;;;;;;;5097626;28;20228;-62
2022/11/21 04:00:01;;;;;;;5.33;3.30;;;;;;;;;;5096970;28;20216;-62
2022/11/21 04:02:29;;;;;;;4.73;3.50;;;;;;;;;;5097399;28;20210;-63
2022/11/21 04:04:57;;;;;;;5.93;3.27;;;;;;;;;;5097027;28;20237;-62
2022/11/21 04:07:28;;;;;;;4.67;3.43;;;;;;;;;;5097374;28;20209;-62
2022/11/21 04:09:56;;;;;;;4.43;3.77;;;;;;;;;;5099991;28;20235;-62
2022/11/21 04:12:24;;;;;;;4.00;3.60;;;;;;;;;;5099582;28;20650;-62
2022/11/21 04:14:52;;;;;;;7.47;4.03;;;;;;;;;;5100162;28;20712;-62
2022/11/21 04:17:20;;;;;;;5.77;4.10;;;;;;;;;;5098155;28;20221;-62
2022/11/21 04:19:48;;;;;;;5.17;3.50;;;;;;;;;;5101211;28;20284;-62
2022/11/21 04:22:16;;;;;;;6.83;3.60;;;;;;;;;;5100706;28;20688;-62
2022/11/21 04:24:46;;;;;;;3.70;3.37;;;;;;;;;;5100849;28;20233;-62
2022/11/21 04:27:14;;;;;;;5.27;2.97;;;;;;;;;;5100496;28;20564;-62
2022/11/21 04:29:41;;;;;;;4.73;3.87;;;;;;;;;;5100731;28;20213;-62
2022/11/21 04:32:09;;;;;;;8.87;3.53;;;;;;;;;;5099823;28;20212;-62
2022/11/21 04:34:38;;;;;;;6.47;4.07;;;;;;;;;;5098713;28;20727;-62
2022/11/21 04:37:06;;;;;;;5.03;3.43;;;;;;;;;;5099287;28;20236;-62
2022/11/21 04:39:38;;;;;;;5.23;3.50;;;;;;;;;;5098612;28;20197;-62
2022/11/21 04:42:07;;;;;;;7.03;3.73;;;;;;;;;;5100328;28;20205;-62
2022/11/21 04:44:35;;;;;;;6.03;4.40;;;;;;;;;;5089388;28;20712;-62
2022/11/21 04:47:03;;;;;;;7.60;3.70;;;;;;;;;;5083170;28;20209;-62
2022/11/21 04:49:32;;;;;;;7.40;3.27;;;;;;;;;;5082433;28;20256;-63
2022/11/21 04:52:00;;;;;;;3.67;3.37;;;;;;;;;;5080771;28;20215;-62
2022/11/21 04:54:28;;;;;;;5.33;4.10;;;;;;;;;;5079623;28;20277;-62
2022/11/21 04:56:57;;;;;;;6.33;3.83;;;;;;;;;;5082448;28;20228;-62
2022/11/21 04:59:26;;;;;;;7.07;3.57;;;;;;;;;;5080230;28;20199;-62
2022/11/21 05:01:54;;;;;;;4.47;3.63;;;;;;;;;;5078522;28;20209;-62
2022/11/21 05:04:23;;;;;;;5.97;3.80;;;;;;;;;;5100214;28;20240;-62
2022/11/21 05:06:51;;;;;;;4.30;3.60;;;;;;;;;;5102116;28;20221;-62
2022/11/21 05:09:19;;;;;;;7.40;4.10;;;;;;;;;;5108397;28;20208;-62
2022/11/21 05:14:34;;;;;;;6.40;4.10;;;;;;;;;;5105890;28;20236;-62
2022/11/21 05:17:02;;;;;;;8.33;4.40;;;;;;;;;;5107814;28;20216;-62
2022/11/21 05:19:30;;;;;;;4.70;3.63;;;;;;;;;;5105066;28;20194;-62
2022/11/21 05:21:58;;;;;;;6.40;3.93;;;;;;;;;;5108368;28;20223;-62
2022/11/21 05:24:26;;;;;;;5.30;4.00;;;;;;;;;;5109188;28;20221;-62
2022/11/21 05:26:54;;;;;;;6.13;4.00;;;;;;;;;;5101330;28;20197;-62
2022/11/21 05:29:22;;;;;;;7.80;4.17;;;;;;;;;;5098673;28;20720;-62
2022/11/21 05:31:56;;;;;;;4.63;3.73;;;;;;;;;;5096819;28;20255;-62
2022/11/21 05:34:24;;;;;;;5.27;3.70;;;;;;;;;;5099525;28;20217;-61
2022/11/21 05:36:55;;;;;;;6.70;4.10;;;;;;;;;;5106494;28;20861;-62
2022/11/21 05:39:24;;;;;;;7.50;4.33;;;;;;;;;;5103626;28;20253;-62
2022/11/21 05:41:52;;;;;;;7.10;4.00;;;;;;;;;;5100270;28;20202;-63
2022/11/21 05:44:24;;;;;;;9.80;7.73;;;;;;;;;;5100706;28;20225;-61
2022/11/21 05:46:52;;;;;;;6.93;5.10;;;;;;;;;;5092613;28;20302;-60
2022/11/21 05:49:21;;;;;;;5.70;4.10;;;;;;;;;;5096913;28;20198;-60
2022/11/21 05:51:49;;;;;;;8.43;4.10;;;;;;;;;;5090756;28;20255;-60
2022/11/21 05:54:17;;;;;;;7.07;4.77;;;;;;;;;;5097288;28;20222;-61
2022/11/21 05:56:45;;;;;;;7.70;4.87;;;;;;;;;;5099047;28;20546;-60
2022/11/21 05:59:13;;;;;;;8.50;4.67;;;;;;;;;;5098655;28;20239;-60
2022/11/21 06:04:28;;;;;;;5.33;4.40;;;;;;;;;;5107712;28;20241;-61
2022/11/21 06:06:57;;;;;;;5.80;3.93;;;;;;;;;;5118997;28;20653;-61
2022/11/21 06:09:25;;;;;;;6.67;3.83;;;;;;;;;;5118490;28;20660;-62
2022/11/21 06:11:53;;;;;;;4.97;3.93;;;;;;;;;;5102856;28;20213;-61
2022/11/21 06:14:21;;;;;;;4.90;4.27;;;;;;;;;;5086353;28;20226;-61
2022/11/21 06:16:50;;;;;;;4.20;3.63;;;;;;;;;;5097127;28;20212;-61
2022/11/21 06:19:18;;;;;;;9.97;3.67;;;;;;;;;;5098385;28;20222;-61
2022/11/21 06:21:47;;;;;;;9.03;3.63;;;;;;;;;;5087388;28;20202;-61
2022/11/21 06:24:15;;;;;;;6.23;4.10;;;;;;;;;;5087470;28;20218;-61
2022/11/21 06:26:48;;;;;;;4.77;3.97;;;;;;;;;;5092514;28;20205;-61
2022/11/21 06:29:23;;;;;;;7.37;4.07;;;;;;;;;;5088100;28;20194;-61
2022/11/21 06:31:54;;;;;;;5.40;3.30;;;;;;;;;;5096480;28;20564;-61
2022/11/21 06:34:22;;;;;;;8.53;5.43;;;;;;;;;;5097795;28;20221;-61
2022/11/21 06:36:52;;;;;;;8.77;5.63;;;;;;;;;;5098068;28;20206;-61
2022/11/21 06:39:20;;;;;;;8.63;5.13;;;;;;;;;;5097902;28;20228;-61
2022/11/21 06:41:49;;;;;;;6.73;5.07;;;;;;;;;;5096701;28;20201;-61
2022/11/21 06:44:18;;;;;;;8.93;5.73;;;;;;;;;;5097545;28;20225;-61
2022/11/21 06:46:46;;;;;;;8.63;5.47;;;;;;;;;;5097756;28;20569;-61
2022/11/21 06:49:18;;;;;;;9.30;5.50;;;;;;;;;;5097966;28;20198;-61
2022/11/21 06:51:46;;;;;;;9.33;5.03;;;;;;;;;;5097768;28;20600;-61
2022/11/21 06:54:15;;;;;;;10.13;4.63;;;;;;;;;;5092934;28;20738;-61
2022/11/21 06:56:44;;;;;;;5.77;4.00;;;;;;;;;;5080761;28;20202;-61
2022/11/21 06:59:12;;;;;;;7.23;4.40;;;;;;;;;;5095732;28;20727;-61
2022/11/21 07:01:40;;;;;;;5.13;4.33;;;;;;;;;;5099359;28;20209;-61
2022/11/21 07:04:08;;;;;;;7.77;4.40;;;;;;;;;;5090807;28;20689;-61
2022/11/21 07:06:37;;;;;;;5.47;3.90;;;;;;;;;;5089021;28;20193;-61
2022/11/21 07:09:05;;;;;;;7.03;4.67;;;;;;;;;;5079453;28;20194;-61
2022/11/21 07:11:54;;;;;;;9.97;6.23;;;;;;;;;;5093453;28;20224;-62
2022/11/21 07:14:21;;;;;;;7.80;4.00;;;;;;;;;;5098235;28;20217;-61
2022/11/21 07:16:50;;;;;;;6.60;4.77;;;;;;;;;;5099051;28;20201;-61
2022/11/21 07:19:18;;;;;;;5.67;4.60;;;;;;;;;;5099286;28;20217;-61
2022/11/21 07:21:46;;;;;;;8.93;4.70;;;;;;;;;;5091434;28;20216;-61
2022/11/21 07:24:14;;;;;;;7.50;5.10;;;;;;;;;;5098043;28;20232;-61
2022/11/21 07:26:42;;;;;;;7.03;4.33;;;;;;;;;;5098527;28;20213;-61
2022/11/21 07:29:12;;;;;;;7.07;4.70;;;;;;;;;;5096983;28;20193;-61
2022/11/21 07:31:40;;;;;;;5.57;4.87;;;;;;;;;;5097253;28;20208;-61
2022/11/21 07:34:08;;;;;;;8.03;4.07;;;;;;;;;;5085850;28;20232;-61
2022/11/21 07:36:36;;;;;;;7.57;3.77;;;;;;;;;;5105556;28;20197;-61
2022/11/21 07:39:05;;;;;;;7.67;4.93;;;;;;;;;;5091512;28;20228;-61
2022/11/21 07:41:33;;;;;;;8.03;6.33;;;;;;;;;;5103770;28;20207;-61
2022/11/21 07:44:01;;;;;;;5.30;4.33;;;;;;;;;;5099189;28;20221;-62
2022/11/21 07:46:30;;;;;;;4.80;4.03;;;;;;;;;;5104060;28;20201;-62
2022/11/21 07:48:58;;;;;;;6.07;3.87;;;;;;;;;;5089392;28;20206;-62
2022/11/21 07:51:30;;;;;;;5.37;4.10;;;;;;;;;;5108683;28;20197;-61
2022/11/21 07:53:58;;;;;;;8.37;4.10;;;;;;;;;;5100902;28;20384;-62
2022/11/21 07:56:26;;;;;;;5.73;3.80;;;;;;;;;;5101517;28;20237;-62
2022/11/21 07:58:55;;;;;;;5.37;3.77;;;;;;;;;;5100971;28;20247;-62
2022/11/21 08:01:25;;;;;;;6.00;3.83;;;;;;;;;;5089329;28;20665;-62
2022/11/21 08:03:55;;;;;;;4.60;3.90;;;;;;;;;;5095528;28;20226;-62
2022/11/21 08:06:23;;;;;;;7.83;4.10;;;;;;;;;;5101084;28;20239;-62
2022/11/21 08:08:55;;;;;;;7.77;3.80;;;;;;;;;;5100951;28;20215;-62
2022/11/21 08:11:24;;;;;;;5.87;3.50;;;;;;;;;;5101014;28;20288;-62
2022/11/21 08:13:53;;;;;;;6.80;3.80;;;;;;;;;;5100731;28;20672;-61
2022/11/21 08:16:23;;;;;;;4.37;3.60;;;;;;;;;;5099462;28;20213;-62
2022/11/21 08:18:55;;;;;;;5.17;3.20;;;;;;;;;;5086317;28;20317;-62
2022/11/21 08:21:24;;;;;;;8.73;4.47;;;;;;;;;;5098244;28;20212;-62
2022/11/21 08:23:53;;;;;;;6.47;3.13;;;;;;;;;;5100175;28;20272;-62
2022/11/21 08:26:21;;;;;;;3.00;2.37;;;;;;;;;;5100440;28;20206;-62
2022/11/21 08:28:50;;;;;;;6.23;3.20;;;;;;;;;;5100749;28;20244;-61
2022/11/21 08:31:25;;;;;;;7.87;3.40;;;;;;;;;;5093389;28;20205;-61
2022/11/21 08:33:56;;;;;;;8.90;3.50;;;;;;;;;;5094782;28;20308;-61
2022/11/21 08:36:25;;;;;;;5.83;3.20;;;;;;;;;;5088603;28;20227;-61
2022/11/21 08:38:53;;;;;;;6.77;2.37;;;;;;;;;;5101760;28;20280;-62
2022/11/21 08:44:07;;;;;;;6.50;3.07;;;;;;;;;;5110750;28;20300;-60
2022/11/21 08:46:41;;;;;;;11.33;4.30;;;;;;;;;;5092370;28;20205;-60
2022/11/21 08:49:10;;;;;;;8.70;3.23;;;;;;;;;;5099930;28;20202;-60
2022/11/21 08:51:38;;;;;;;4.07;3.07;;;;;;;;;;5094631;28;20733;-60
2022/11/21 08:54:08;;;;;;;6.13;2.90;;;;;;;;;;5086123;28;20587;-61
2022/11/21 08:56:37;;;;;;;8.33;2.83;;;;;;;;;;5099850;28;20231;-61
2022/11/21 08:59:06;;;;;;;8.33;3.70;;;;;;;;;;5099532;28;20209;-60
2022/11/21 09:01:34;;;;;;;7.27;3.37;;;;;;;;;;5098186;28;20197;-61
2022/11/21 09:04:02;;;;;;;6.43;3.50;;;;;;;;;;5107980;28;20224;-61
2022/11/21 09:06:31;;;;;;;3.00;2.47;;;;;;;;;;5096024;28;20202;-61
2022/11/21 09:08:59;;;;;;;7.77;3.13;;;;;;;;;;5090776;28;20217;-61
2022/11/21 09:11:27;;;;;;;4.50;2.93;;;;;;;;;;5086925;28;20198;-62
2022/11/21 09:19:29;;;;;;;4.43;2.90;;;;;;;;;;5099435;28;20684;-60
2022/11/21 09:21:59;;;;;;;4.93;3.20;;;;;;;;;;5096001;28;20209;-61
2022/11/21 09:24:27;;;;;;;6.90;3.70;;;;;;;;;;5098272;28;20236;-62
2022/11/21 09:26:55;;;;;;;5.63;3.43;;;;;;;;;;5100576;28;20665;-63
2022/11/21 09:29:23;;;;;;;4.33;3.13;;;;;;;;;;5099226;28;20200;-62
2022/11/21 09:31:51;;;;;;;5.10;3.43;;;;;;;;;;5101941;28;20240;-62
2022/11/21 09:34:20;;;;;;;7.37;3.87;;;;;;;;;;5097623;28;20308;-62
2022/11/21 09:36:48;;;;;;;8.50;4.13;;;;;;;;;;5099533;28;20240;-62
2022/11/21 09:39:19;;;;;;;3.77;3.27;;;;;;;;;;5098792;28;20753;-62
2022/11/21 09:41:53;;;;;;;6.00;3.47;;;;;;;;;;5116605;28;20205;-62
2022/11/21 09:44:30;;;;;;;5.57;3.40;;;;;;;;;;5107046;28;20224;-61
2022/11/21 09:47:02;;;;;;;5.40;3.57;;;;;;;;;;5091707;28;20209;-61
2022/11/21 09:49:32;;;;;;;8.17;4.27;;;;;;;;;;5095251;28;20994;-61
2022/11/21 09:52:00;;;;;;;5.20;3.30;;;;;;;;;;5106061;28;20199;-61
2022/11/21 09:54:32;;;;;;;7.53;3.50;;;;;;;;;;5104938;28;20224;-61
2022/11/21 09:57:01;;;;;;;5.33;3.83;;;;;;;;;;5106949;28;20660;-61
2022/11/21 09:59:32;;;;;;;7.50;4.00;;;;;;;;;;5107926;28;20205;-61
2022/11/21 10:02:00;;;;;;;8.10;4.30;;;;;;;;;;5107955;28;20197;-61
2022/11/21 10:04:29;;;;;;;6.83;3.70;;;;;;;;;;5106401;28;20233;-62
2022/11/21 10:07:02;;;;;;;6.53;4.17;;;;;;;;;;5097375;28;20251;-62
2022/11/21 10:09:36;;;;;;;13.53;5.47;;;;;;;;;;5109324;28;20196;-62
2022/11/21 10:14:57;;;;;;;7.73;5.07;;;;;;;;;;5099551;28;20224;-63
2022/11/21 10:17:31;;;;;;;9.20;5.87;;;;;;;;;;5097718;28;20204;-62
2022/11/21 10:20:05;;;;;;;8.43;5.20;;;;;;;;;;5096459;28;20224;-62
2022/11/21 10:22:45;;;;;;;6.10;4.57;;;;;;;;;;5091879;28;20228;-62
2022/11/21 10:25:18;;;;;;;6.27;4.27;;;;;;;;;;5080149;28;20222;-62
2022/11/21 10:27:57;;;;;;;5.10;3.80;;;;;;;;;;5095056;28;20209;-62
2022/11/21 10:30:25;;;;;;;9.93;3.97;;;;;;;;;;5097990;28;20547;-62
2022/11/21 10:32:55;;;;;;;5.63;3.53;;;;;;;;;;5104103;28;20201;-62
2022/11/21 10:35:25;;;;;;;4.20;3.80;;;;;;;;;;5106087;28;20225;-62
2022/11/21 10:37:54;;;;;;;5.73;3.90;;;;;;;;;;5107104;28;20259;-62
2022/11/21 10:40:30;;;;;;;5.93;3.67;;;;;;;;;;5107867;28;20284;-62
2022/11/21 10:45:14;;;;;;;7.83;3.90;;;;;;;;;;5104175;28;20203;-63
2022/11/21 10:45:47;;;;;;;5.13;3.27;;;;;;;;;;5104501;28;20228;-62
2022/11/21 10:48:15;;;;;;;4.43;3.30;;;;;;;;;;5101722;28;20211;-62
2022/11/21 10:50:50;;;;;;;5.87;3.57;;;;;;;;;;5104014;28;20559;-62
2022/11/21 10:56:07;;;;;;;5.87;3.63;;;;;;;;;;5105003;28;20201;-63
2022/11/21 10:58:39;;;;;;;7.70;3.90;;;;;;;;;;5103460;27;20206;-63
2022/11/21 11:01:18;;;;;;;9.47;3.90;;;;;;;;;;5097882;28;20224;-63
2022/11/21 11:03:46;;;;;;;7.13;3.50;;;;;;;;;;5089697;28;20577;-64
2022/11/21 11:06:34;;;;;;;4.67;2.70;;;;;;;;;;5095872;28;20206;-64
2022/11/21 11:09:02;;;;;;;4.30;2.57;;;;;;;;;;5086231;28;20206;-65
2022/11/21 11:11:32;;;;;;;5.20;2.70;;;;;;;;;;5097043;28;20620;-65
2022/11/21 11:14:01;;;;;;;9.63;2.77;;;;;;;;;;5098041;28;20222;-64
2022/11/21 11:16:29;;;;;;;7.53;3.33;;;;;;;;;;5094591;28;20206;-64
2022/11/21 11:18:59;;;;;;;6.33;2.70;;;;;;;;;;5094572;28;20204;-61
2022/11/21 11:21:28;;;;;;;6.87;2.67;;;;;;;;;;5107059;28;20575;-65
2022/11/21 11:24:06;;;;;;;5.83;3.07;;;;;;;;;;5098649;28;20249;-64
2022/11/21 11:26:49;;;;;;;4.13;2.63;;;;;;;;;;5099717;28;20261;-63
2022/11/21 11:29:18;;;;;;;8.27;3.10;;;;;;;;;;5117753;28;20207;-62
2022/11/21 11:31:52;;;;;;;5.47;2.60;;;;;;;;;;5118091;28;20201;-63
2022/11/21 11:34:20;;;;;;;8.63;2.77;;;;;;;;;;5117785;28;20234;-62
2022/11/21 11:37:03;;;;;;;6.63;2.63;;;;;;;;;;5117678;28;20204;-63
2022/11/21 11:39:39;;;;;;;6.87;2.93;;;;;;;;;;5115962;28;20205;-62
2022/11/21 11:48:01;;;;;;;8.83;2.97;;;;;;;;;;5084750;28;20202;-64
2022/11/21 11:50:32;;;;;;;4.93;2.37;;;;;;;;;;5097504;28;20208;-61
2022/11/21 11:53:04;;;;;;;3.00;1.93;;;;;;;;;;5097600;28;20206;-63
2022/11/21 11:55:36;;;;;;;6.27;2.40;;;;;;;;;;5097419;28;20226;-63
2022/11/21 11:58:07;;;;;;;6.43;2.30;;;;;;;;;;5097225;28;20206;-63
2022/11/21 12:00:40;;;;;;;4.17;2.60;;;;;;;;;;5096775;28;20233;-63
2022/11/21 12:03:12;;;;;;;4.67;2.20;;;;;;;;;;5109063;28;20196;-64
2022/11/21 12:05:51;;;;;;;8.53;2.30;;;;;;;;;;5098341;28;20230;-64
2022/11/21 12:08:21;;;;;;;3.57;1.93;;;;;;;;;;5094737;28;20205;-64
2022/11/21 12:14:04;;;;;;;7.40;2.47;;;;;;;;;;5082936;28;20697;-64
2022/11/21 12:16:33;;;;;;;5.50;2.03;;;;;;;;;;5093755;28;20209;-65
2022/11/21 12:19:05;;;;;;;5.77;2.17;;;;;;;;;;5097071;28;20213;-65
2022/11/21 12:21:33;;;;;;;5.23;2.17;;;;;;;;;;5096968;28;20229;-65
2022/11/21 12:24:03;;;;;;;9.37;2.53;;;;;;;;;;5097162;28;20412;-65
2022/11/21 12:26:35;;;;;;;4.27;2.30;;;;;;;;;;5091950;28;20210;-65
2022/11/21 12:29:13;;;;;;;4.73;2.60;;;;;;;;;;5097896;28;20210;-64
2022/11/21 12:31:48;;;;;;;3.57;1.80;;;;;;;;;;5100418;28;20205;-64
2022/11/21 12:34:22;;;;;;;2.60;1.63;;;;;;;;;;5100532;28;20228;-64
2022/11/21 12:36:53;;;;;;;3.90;1.97;;;;;;;;;;5099725;28;20201;-64
2022/11/21 12:39:40;;;;;;;4.60;2.03;;;;;;;;;;5100273;28;20231;-65
2022/11/21 12:45:02;;;;;;;4.17;2.37;;;;;;;;;;5099794;28;20226;-65
2022/11/21 12:54:29;;;;;;;3.40;1.57;;;;;;;;;;5100431;28;20207;-65
2022/11/21 12:56:09;;;;;;;4.30;1.90;;;;;;;;;;5100620;28;20205;-65
2022/11/21 12:58:39;;;;;;;4.83;2.00;;;;;;;;;;5100150;28;20210;-64
2022/11/21 13:01:15;;;;;;;4.37;1.83;;;;;;;;;;5100047;28;20236;-65
2022/11/21 13:03:52;;;;;;;8.07;1.80;;;;;;;;;;5097104;28;20697;-64
2022/11/21 13:06:22;;;;;;;4.27;2.10;;;;;;;;;;5091223;28;20205;-64
2022/11/21 13:08:51;;;;;;;5.20;1.40;;;;;;;;;;5099816;28;20661;-63
2022/11/21 13:14:12;;;;;;;6.33;1.60;;;;;;;;;;5099357;28;20234;-64
2022/11/21 13:16:45;;;;;;;4.70;1.70;;;;;;;;;;5096902;28;20198;-65
2022/11/21 13:19:17;;;;;;;5.70;2.13;;;;;;;;;;5099994;28;20209;-65
2022/11/21 13:21:47;;;;;;;6.17;2.20;;;;;;;;;;5099530;28;20225;-64
2022/11/21 13:24:30;;;;;;;4.60;2.13;;;;;;;;;;5099819;28;20233;-64
2022/11/21 13:26:58;;;;;;;2.57;1.90;;;;;;;;;;5099542;28;20213;-65
2022/11/21 13:29:26;;;;;;;8.60;2.03;;;;;;;;;;5099637;28;20206;-65
2022/11/21 13:31:55;;;;;;;5.33;1.50;;;;;;;;;;5099718;28;20251;-65
2022/11/21 13:34:35;;;;;;;6.37;2.10;;;;;;;;;;5097388;28;20214;-65
2022/11/21 13:37:04;;;;;;;4.33;1.93;;;;;;;;;;5087289;28;20202;-65
2022/11/21 13:39:36;;;;;;;3.17;1.70;;;;;;;;;;5096597;28;20216;-65
2022/11/21 13:44:50;;;;;;;4.50;1.90;;;;;;;;;;5099093;28;20233;-65
2022/11/21 13:47:37;;;;;;;1.83;1.53;;;;;;;;;;5099006;28;20206;-65
2022/11/21 13:50:18;;;;;;;5.47;1.67;;;;;;;;;;5099378;28;20231;-65
2022/11/21 13:52:49;;;;;;;3.73;1.40;;;;;;;;;;5099272;28;20208;-65
2022/11/21 13:55:35;;;;;;;2.87;1.13;;;;;;;;;;5099169;28;20236;-65
2022/11/21 13:58:09;;;;;;;4.70;1.37;;;;;;;;;;5099074;28;20210;-65
2022/11/21 14:00:49;;;;;;;5.07;1.90;;;;;;;;;;5098739;28;20220;-64
2022/11/21 14:03:36;;;;;;;4.30;1.40;;;;;;;;;;5098824;28;20229;-65
2022/11/21 14:06:19;;;;;;;1.40;1.30;;;;;;;;;;5088181;28;20233;-65
2022/11/21 14:09:02;;;;;;;2.63;1.30;;;;;;;;;;5098721;28;20206;-64
2022/11/21 14:11:35;;;;;;;2.77;1.70;;;;;;;;;;5098902;28;20206;-65
2022/11/21 14:14:03;;;;;;;2.10;1.30;;;;;;;;;;5098458;28;20232;-65
2022/11/21 14:16:35;;;;;;;3.93;1.40;;;;;;;;;;5095998;28;20202;-65
2022/11/21 14:19:03;;;;;;;5.03;1.33;;;;;;;;;;5098816;28;20210;-65
2022/11/21 14:21:33;;;;;;;3.70;1.37;;;;;;;;;;5098565;28;20209;-65
2022/11/21 14:24:03;;;;;;;2.77;1.13;;;;;;;;;;5098632;28;20648;-65
2022/11/21 14:26:31;;;;;;;1.37;1.10;;;;;;;;;;5098723;28;20205;-65
2022/11/21 14:29:14;;;;;;;3.77;1.23;;;;;;;;;;5097956;28;20207;-65
2022/11/21 14:31:44;;;;;;;2.07;1.00;;;;;;;;;;5095127;28;20202;-65
2022/11/21 14:34:23;;;;;;;3.23;1.13;;;;;;;;;;5092306;28;20230;-65
2022/11/21 14:36:53;;;;;;;2.20;0.90;;;;;;;;;;5098179;28;20232;-65
2022/11/21 14:39:23;;;;;;;4.03;1.10;;;;;;;;;;5098288;28;20202;-65
2022/11/21 14:42:12;;;;;;;1.73;0.90;;;;;;;;;;5098043;28;20726;-65
2022/11/21 14:44:40;;;;;;;3.70;1.30;;;;;;;;;;5097667;28;20601;-65
2022/11/21 14:47:14;;;;;;;1.40;0.97;;;;;;;;;;5095987;28;20213;-65
2022/11/21 14:49:51;;;;;;;3.87;1.10;;;;;;;;;;5097925;28;20623;-65
2022/11/21 14:52:23;;;;;;;3.03;1.00;;;;;;;;;;5097308;28;20660;-65
2022/11/21 14:54:53;;;;;;;5.47;1.23;;;;;;;;;;5098079;28;20251;-65
2022/11/21 14:57:42;;;;;;;4.37;1.43;;;;;;;;;;5094492;28;20204;-65
2022/11/21 15:00:12;;;;;;;1.73;1.00;;;;;;;;;;5096898;28;20572;-65
2022/11/21 15:03:01;;;;;;;2.27;0.70;;;;;;;;;;5097875;28;20590;-65
2022/11/21 15:05:31;;;;;;;3.33;1.50;;;;;;;;;;5097781;28;20233;-65
2022/11/21 15:08:23;;;;;;;1.67;1.23;;;;;;;;;;5094945;28;20193;-65
2022/11/21 15:11:12;;;;;;;3.43;1.30;;;;;;;;;;5088797;28;20211;-65
2022/11/21 15:13:40;;;;;;;3.47;1.27;;;;;;;;;;5097989;28;20236;-65
2022/11/21 15:16:28;;;;;;;5.37;1.50;;;;;;;;;;5095249;28;20221;-65
2022/11/21 15:18:56;;;;;;;1.63;1.20;;;;;;;;;;5097065;28;20289;-65
2022/11/21 15:21:24;;;;;;;2.30;1.30;;;;;;;;;;5098384;28;20266;-65
2022/11/21 15:23:55;;;;;;;3.53;1.13;;;;;;;;;;5097748;28;20308;-65
2022/11/21 15:26:28;;;;;;;5.20;1.40;;;;;;;;;;5097868;28;20202;-65
2022/11/21 15:28:56;;;;;;;3.83;1.63;;;;;;;;;;5097232;28;20209;-65
2022/11/21 15:31:24;;;;;;;4.37;1.10;;;;;;;;;;5097577;28;20202;-65
2022/11/21 15:33:56;;;;;;;2.87;1.40;;;;;;;;;;5097734;28;20221;-63
2022/11/21 15:37:02;;;;;;;3.73;1.33;;;;;;;;;;5097728;28;20270;-64
2022/11/21 15:39:32;;;;;;;3.60;1.00;;;;;;;;;;5096600;28;20209;-64
2022/11/21 15:42:19;;;;;;;2.00;1.27;;;;;;;;;;5097779;28;20262;-65
2022/11/21 15:45:00;;;;;;;2.67;1.17;;;;;;;;;;5096428;28;20722;-65
2022/11/21 15:47:28;;;;;;;5.13;1.50;;;;;;;;;;5097659;28;20220;-63